sensor_id;sensor_type;location;lat;lon;timestamp;temperature;humidity
19586;DHT22;9939;49.246;9.106;2022-11-20T00:01:05;2.90;99.90
19586;DHT22;9939;49.246;9.106;2022-11-20T00:03:32;2.90;99.90
19586;DHT22;9939;49.246;9.106;2022-11-20T00:06:00;2.80;99.90
19586;DHT22;9939;49.246;9.106;2022-11-20T00:08:27;2.80;99.90
19586;DHT22;9939;49.246;9.106;2022-11-20T00:10:54;2.90;99.90
19586;DHT22;9939;49.246;9.106;2022-11-20T00:13:21;2.80;99.90
19586;DHT22;9939;49.246;9.106;2022-11-20T00:15:48;2.70;99.90
19586;DHT22;9939;49.246;9.106;2022-11-20T00:18:15;2.70;99.90
19586;DHT22;9939;49.246;9.106;2022-11-20T00:20:42;2.80;99.90
19586;DHT22;9939;49.246;9.106;2022-11-20T00:23:09;2.80;99.90
19586;DHT22;9939;49.246;9.106;2022-11-20T00:25:36;2.70;99.90
19586;DHT22;9939;49.246;9.106;2022-11-20T00:28:03;2.80;99.90
19586;DHT22;9939;49.246;9.106;2022-11-20T00:30:29;2.80;99.90
19586;DHT22;9939;49.246;9.106;2022-11-20T00:32:56;2.90;99.90
19586;DHT22;9939;49.246;9.106;2022-11-20T00:35:24;3.10;99.90
19586;DHT22;9939;49.246;9.106;2022-11-20T00:37:51;2.90;99.90
19586;DHT22;9939;49.246;9.106;2022-11-20T00:40:18;3.00;99.90
19586;DHT22;9939;49.246;9.106;2022-11-20T00:42:45;2.90;99.90
19586;DHT22;9939;49.246;9.106;2022-11-20T00:45:11;2.80;99.90
19586;DHT22;9939;49.246;9.106;2022-11-20T00:47:38;2.80;99.90
19586;DHT22;9939;49.246;9.106;2022-11-20T00:50:05;2.90;99.90
19586;DHT22;9939;49.246;9.106;2022-11-20T00:52:32;2.90;99.90
19586;DHT22;9939;49.246;9.106;2022-11-20T00:54:59;2.90;99.90
19586;DHT22;9939;49.246;9.106;2022-11-20T00:57:26;2.80;99.90
19586;DHT22;9939;49.246;9.106;2022-11-20T00:59:53;2.80;99.90
19586;DHT22;9939;49.246;9.106;2022-11-20T01:02:20;2.80;99.90
19586;DHT22;9939;49.246;9.106;2022-11-20T01:04:46;2.90;99.90
19586;DHT22;9939;49.246;9.106;2022-11-20T01:07:14;2.80;99.90
19586;DHT22;9939;49.246;9.106;2022-11-20T01:09:41;2.90;99.90
19586;DHT22;9939;49.246;9.106;2022-11-20T01:12:07;2.90;99.90
19586;DHT22;9939;49.246;9.106;2022-11-20T01:14:34;3.00;99.90
19586;DHT22;9939;49.246;9.106;2022-11-20T01:17:01;2.90;99.90
19586;DHT22;9939;49.246;9.106;2022-11-20T01:19:28;2.90;99.90
19586;DHT22;9939;49.246;9.106;2022-11-20T01:21:55;2.90;99.90
19586;DHT22;9939;49.246;9.106;2022-11-20T01:24:22;2.80;99.90
19586;DHT22;9939;49.246;9.106;2022-11-20T01:26:49;2.80;99.90
19586;DHT22;9939;49.246;9.106;2022-11-20T01:29:17;2.90;99.90
19586;DHT22;9939;49.246;9.106;2022-11-20T01:31:45;2.90;99.90
19586;DHT22;9939;49.246;9.106;2022-11-20T01:34:14;2.90;99.90
19586;DHT22;9939;49.246;9.106;2022-11-20T01:36:42;2.90;99.90
19586;DHT22;9939;49.246;9.106;2022-11-20T01:39:13;2.90;99.90
19586;DHT22;9939;49.246;9.106;2022-11-20T01:41:40;3.00;99.90
19586;DHT22;9939;49.246;9.106;2022-11-20T01:44:50;2.90;99.90
19586;DHT22;9939;49.246;9.106;2022-11-20T01:47:19;3.00;99.90
19586;DHT22;9939;49.246;9.106;2022-11-20T01:52:55;3.00;99.90
19586;DHT22;9939;49.246;9.106;2022-11-20T01:55:31;3.00;99.90
19586;DHT22;9939;49.246;9.106;2022-11-20T01:57:59;3.10;99.90
19586;DHT22;9939;49.246;9.106;2022-11-20T02:00:26;3.10;99.90
19586;DHT22;9939;49.246;9.106;2022-11-20T02:02:55;3.10;99.90
19586;DHT22;9939;49.246;9.106;2022-11-20T02:07:50;3.10;99.90
19586;DHT22;9939;49.246;9.106;2022-11-20T02:10:19;3.10;99.90
19586;DHT22;9939;49.246;9.106;2022-11-20T02:12:46;3.20;99.90
19586;DHT22;9939;49.246;9.106;2022-11-20T02:15:32;3.30;99.90
19586;DHT22;9939;49.246;9.106;2022-11-20T02:17:59;3.20;99.90
19586;DHT22;9939;49.246;9.106;2022-11-20T02:20:26;3.10;99.90
19586;DHT22;9939;49.246;9.106;2022-11-20T02:22:57;3.20;99.90
19586;DHT22;9939;49.246;9.106;2022-11-20T02:25:26;3.30;99.90
19586;DHT22;9939;49.246;9.106;2022-11-20T02:27:53;3.20;99.90
19586;DHT22;9939;49.246;9.106;2022-11-20T02:30:20;3.20;99.90
19586;DHT22;9939;49.246;9.106;2022-11-20T02:32:47;3.30;99.90
19586;DHT22;9939;49.246;9.106;2022-11-20T02:37:47;3.30;99.90
19586;DHT22;9939;49.246;9.106;2022-11-20T02:40:14;3.40;99.90
19586;DHT22;9939;49.246;9.106;2022-11-20T02:42:41;3.40;99.90
19586;DHT22;9939;49.246;9.106;2022-11-20T02:45:08;3.50;99.90
19586;DHT22;9939;49.246;9.106;2022-11-20T02:47:35;3.20;99.90
19586;DHT22;9939;49.246;9.106;2022-11-20T02:50:03;3.20;99.90
19586;DHT22;9939;49.246;9.106;2022-11-20T02:52:30;3.20;99.90
19586;DHT22;9939;49.246;9.106;2022-11-20T02:54:57;3.30;99.90
19586;DHT22;9939;49.246;9.106;2022-11-20T02:57:24;3.40;99.90
19586;DHT22;9939;49.246;9.106;2022-11-20T02:59:51;3.40;99.90
19586;DHT22;9939;49.246;9.106;2022-11-20T03:02:17;3.50;99.90
19586;DHT22;9939;49.246;9.106;2022-11-20T03:04:44;3.50;99.90
19586;DHT22;9939;49.246;9.106;2022-11-20T03:07:11;3.50;99.90
19586;DHT22;9939;49.246;9.106;2022-11-20T03:09:38;3.40;99.90
19586;DHT22;9939;49.246;9.106;2022-11-20T03:12:05;3.40;99.90
19586;DHT22;9939;49.246;9.106;2022-11-20T03:14:32;3.50;99.90
19586;DHT22;9939;49.246;9.106;2022-11-20T03:16:59;3.50;99.90
19586;DHT22;9939;49.246;9.106;2022-11-20T03:19:26;3.60;99.90
19586;DHT22;9939;49.246;9.106;2022-11-20T03:21:52;3.60;99.90
19586;DHT22;9939;49.246;9.106;2022-11-20T03:24:19;3.60;99.90
19586;DHT22;9939;49.246;9.106;2022-11-20T03:26:46;3.60;99.90
19586;DHT22;9939;49.246;9.106;2022-11-20T03:29:13;3.60;99.90
19586;DHT22;9939;49.246;9.106;2022-11-20T03:31:40;3.60;99.90
19586;DHT22;9939;49.246;9.106;2022-11-20T03:34:08;3.50;99.90
19586;DHT22;9939;49.246;9.106;2022-11-20T03:36:37;3.50;99.90
19586;DHT22;9939;49.246;9.106;2022-11-20T03:39:04;3.50;99.90
19586;DHT22;9939;49.246;9.106;2022-11-20T03:41:31;3.70;99.90
19586;DHT22;9939;49.246;9.106;2022-11-20T03:44:02;4.00;99.90
19586;DHT22;9939;49.246;9.106;2022-11-20T03:46:29;3.90;99.90
19586;DHT22;9939;49.246;9.106;2022-11-20T03:48:57;3.90;99.90
19586;DHT22;9939;49.246;9.106;2022-11-20T03:51:25;4.00;99.90
19586;DHT22;9939;49.246;9.106;2022-11-20T03:53:53;3.90;99.90
19586;DHT22;9939;49.246;9.106;2022-11-20T03:56:24;3.90;99.90
19586;DHT22;9939;49.246;9.106;2022-11-20T03:58:52;3.90;99.90
19586;DHT22;9939;49.246;9.106;2022-11-20T04:01:20;3.90;99.90
19586;DHT22;9939;49.246;9.106;2022-11-20T04:03:51;3.90;99.90
19586;DHT22;9939;49.246;9.106;2022-11-20T04:08:45;3.80;99.90
19586;DHT22;9939;49.246;9.106;2022-11-20T04:11:23;3.80;99.90
19586;DHT22;9939;49.246;9.106;2022-11-20T04:13:51;3.70;99.90
19586;DHT22;9939;49.246;9.106;2022-11-20T04:16:19;3.70;99.90
19586;DHT22;9939;49.246;9.106;2022-11-20T04:18:46;3.60;99.90
19586;DHT22;9939;49.246;9.106;2022-11-20T04:21:13;3.70;99.90
19586;DHT22;9939;49.246;9.106;2022-11-20T04:23:39;3.70;99.90
19586;DHT22;9939;49.246;9.106;2022-11-20T04:26:10;3.80;99.90
19586;DHT22;9939;49.246;9.106;2022-11-20T04:28:38;3.70;99.90
19586;DHT22;9939;49.246;9.106;2022-11-20T04:31:06;3.70;99.90
19586;DHT22;9939;49.246;9.106;2022-11-20T04:33:33;3.80;99.90
19586;DHT22;9939;49.246;9.106;2022-11-20T04:36:01;3.80;99.90
19586;DHT22;9939;49.246;9.106;2022-11-20T04:38:28;4.00;99.90
19586;DHT22;9939;49.246;9.106;2022-11-20T04:40:56;3.80;99.90
19586;DHT22;9939;49.246;9.106;2022-11-20T04:43:23;3.90;99.90
19586;DHT22;9939;49.246;9.106;2022-11-20T04:45:51;4.10;99.90
19586;DHT22;9939;49.246;9.106;2022-11-20T04:48:18;3.90;99.90
19586;DHT22;9939;49.246;9.106;2022-11-20T04:50:45;3.90;99.90
19586;DHT22;9939;49.246;9.106;2022-11-20T04:53:11;3.70;99.90
19586;DHT22;9939;49.246;9.106;2022-11-20T04:55:38;3.80;99.90
19586;DHT22;9939;49.246;9.106;2022-11-20T04:58:05;3.90;99.90
19586;DHT22;9939;49.246;9.106;2022-11-20T05:00:32;3.90;99.90
19586;DHT22;9939;49.246;9.106;2022-11-20T05:02:59;3.90;99.90
19586;DHT22;9939;49.246;9.106;2022-11-20T05:05:26;4.00;99.90
19586;DHT22;9939;49.246;9.106;2022-11-20T05:07:53;4.00;99.90
19586;DHT22;9939;49.246;9.106;2022-11-20T05:10:22;4.00;99.90
19586;DHT22;9939;49.246;9.106;2022-11-20T05:12:48;4.10;99.90
19586;DHT22;9939;49.246;9.106;2022-11-20T05:15:15;4.20;99.90
19586;DHT22;9939;49.246;9.106;2022-11-20T05:17:49;4.20;99.90
19586;DHT22;9939;49.246;9.106;2022-11-20T05:20:16;4.30;99.90
19586;DHT22;9939;49.246;9.106;2022-11-20T05:22:43;4.30;99.90
19586;DHT22;9939;49.246;9.106;2022-11-20T05:25:11;4.40;99.90
19586;DHT22;9939;49.246;9.106;2022-11-20T05:27:38;4.40;99.90
19586;DHT22;9939;49.246;9.106;2022-11-20T05:30:05;4.40;99.90
19586;DHT22;9939;49.246;9.106;2022-11-20T05:32:32;4.60;99.90
19586;DHT22;9939;49.246;9.106;2022-11-20T05:34:59;4.50;99.90
19586;DHT22;9939;49.246;9.106;2022-11-20T05:37:26;4.50;99.90
19586;DHT22;9939;49.246;9.106;2022-11-20T05:39:53;4.60;99.90
19586;DHT22;9939;49.246;9.106;2022-11-20T05:42:19;4.70;99.90
19586;DHT22;9939;49.246;9.106;2022-11-20T05:44:59;4.80;99.90
19586;DHT22;9939;49.246;9.106;2022-11-20T05:47:27;5.00;99.90
19586;DHT22;9939;49.246;9.106;2022-11-20T05:49:54;4.90;99.90
19586;DHT22;9939;49.246;9.106;2022-11-20T05:52:21;4.90;99.90
19586;DHT22;9939;49.246;9.106;2022-11-20T05:54:48;5.00;99.90
19586;DHT22;9939;49.246;9.106;2022-11-20T05:57:14;5.00;99.90
19586;DHT22;9939;49.246;9.106;2022-11-20T05:59:41;5.10;99.90
19586;DHT22;9939;49.246;9.106;2022-11-20T06:02:08;5.20;99.90
19586;DHT22;9939;49.246;9.106;2022-11-20T06:04:35;5.10;99.90
19586;DHT22;9939;49.246;9.106;2022-11-20T06:07:02;5.10;99.90
19586;DHT22;9939;49.246;9.106;2022-11-20T06:09:29;5.20;99.90
19586;DHT22;9939;49.246;9.106;2022-11-20T06:11:56;5.40;99.90
19586;DHT22;9939;49.246;9.106;2022-11-20T06:14:23;5.30;99.90
19586;DHT22;9939;49.246;9.106;2022-11-20T06:16:50;5.30;99.90
19586;DHT22;9939;49.246;9.106;2022-11-20T06:19:16;5.40;99.90
19586;DHT22;9939;49.246;9.106;2022-11-20T06:21:43;5.50;99.90
19586;DHT22;9939;49.246;9.106;2022-11-20T06:24:10;5.50;99.90
19586;DHT22;9939;49.246;9.106;2022-11-20T06:26:37;5.40;99.90
19586;DHT22;9939;49.246;9.106;2022-11-20T06:29:04;5.40;99.90
19586;DHT22;9939;49.246;9.106;2022-11-20T06:31:31;5.40;99.90
19586;DHT22;9939;49.246;9.106;2022-11-20T06:34:04;5.40;99.90
19586;DHT22;9939;49.246;9.106;2022-11-20T06:36:32;5.50;99.90
19586;DHT22;9939;49.246;9.106;2022-11-20T06:38:59;5.40;99.90
19586;DHT22;9939;49.246;9.106;2022-11-20T06:41:27;5.40;99.90
19586;DHT22;9939;49.246;9.106;2022-11-20T06:43:54;5.60;99.90
19586;DHT22;9939;49.246;9.106;2022-11-20T06:46:22;5.50;99.90
19586;DHT22;9939;49.246;9.106;2022-11-20T06:48:49;5.60;99.90
19586;DHT22;9939;49.246;9.106;2022-11-20T06:51:16;5.60;99.90
19586;DHT22;9939;49.246;9.106;2022-11-20T06:53:44;5.60;99.90
19586;DHT22;9939;49.246;9.106;2022-11-20T06:56:11;5.70;99.90
19586;DHT22;9939;49.246;9.106;2022-11-20T06:58:38;5.50;99.90
19586;DHT22;9939;49.246;9.106;2022-11-20T07:01:12;5.60;99.90
19586;DHT22;9939;49.246;9.106;2022-11-20T07:03:39;5.60;99.90
19586;DHT22;9939;49.246;9.106;2022-11-20T07:06:06;5.70;99.90
19586;DHT22;9939;49.246;9.106;2022-11-20T07:08:33;5.80;99.90
19586;DHT22;9939;49.246;9.106;2022-11-20T07:11:01;5.70;99.90
19586;DHT22;9939;49.246;9.106;2022-11-20T07:13:29;5.80;99.90
19586;DHT22;9939;49.246;9.106;2022-11-20T07:15:59;5.80;99.90
19586;DHT22;9939;49.246;9.106;2022-11-20T07:18:26;5.90;99.90
19586;DHT22;9939;49.246;9.106;2022-11-20T07:20:53;6.00;99.90
19586;DHT22;9939;49.246;9.106;2022-11-20T07:23:20;6.00;99.90
19586;DHT22;9939;49.246;9.106;2022-11-20T07:25:46;6.00;99.90
19586;DHT22;9939;49.246;9.106;2022-11-20T07:28:13;6.00;99.90
19586;DHT22;9939;49.246;9.106;2022-11-20T07:30:40;6.00;99.90
19586;DHT22;9939;49.246;9.106;2022-11-20T07:33:07;6.10;99.90
19586;DHT22;9939;49.246;9.106;2022-11-20T07:35:34;6.00;99.90
19586;DHT22;9939;49.246;9.106;2022-11-20T07:38:02;6.00;99.90
19586;DHT22;9939;49.246;9.106;2022-11-20T07:40:29;6.00;99.90
19586;DHT22;9939;49.246;9.106;2022-11-20T07:42:56;6.00;99.90
19586;DHT22;9939;49.246;9.106;2022-11-20T07:45:23;6.10;99.90
19586;DHT22;9939;49.246;9.106;2022-11-20T07:47:50;6.10;99.90
19586;DHT22;9939;49.246;9.106;2022-11-20T07:50:17;6.20;99.90
19586;DHT22;9939;49.246;9.106;2022-11-20T07:52:44;6.30;99.90
19586;DHT22;9939;49.246;9.106;2022-11-20T07:55:11;6.40;99.90
19586;DHT22;9939;49.246;9.106;2022-11-20T07:57:38;6.30;99.90
19586;DHT22;9939;49.246;9.106;2022-11-20T08:00:06;6.30;99.90
19586;DHT22;9939;49.246;9.106;2022-11-20T08:02:39;6.30;99.90
19586;DHT22;9939;49.246;9.106;2022-11-20T08:05:07;6.30;99.90
19586;DHT22;9939;49.246;9.106;2022-11-20T08:07:37;6.30;99.90
19586;DHT22;9939;49.246;9.106;2022-11-20T08:10:05;6.30;99.90
19586;DHT22;9939;49.246;9.106;2022-11-20T08:12:33;6.30;99.90
19586;DHT22;9939;49.246;9.106;2022-11-20T08:15:18;6.40;99.90
19586;DHT22;9939;49.246;9.106;2022-11-20T08:17:45;6.40;99.90
19586;DHT22;9939;49.246;9.106;2022-11-20T08:20:32;6.40;99.90
19586;DHT22;9939;49.246;9.106;2022-11-20T08:23:03;6.50;99.90
19586;DHT22;9939;49.246;9.106;2022-11-20T08:25:32;6.50;99.90
19586;DHT22;9939;49.246;9.106;2022-11-20T08:28:00;6.50;99.90
19586;DHT22;9939;49.246;9.106;2022-11-20T08:30:41;6.50;99.90
19586;DHT22;9939;49.246;9.106;2022-11-20T08:33:08;6.50;99.90
19586;DHT22;9939;49.246;9.106;2022-11-20T08:35:36;6.60;99.90
19586;DHT22;9939;49.246;9.106;2022-11-20T08:38:04;6.60;99.90
19586;DHT22;9939;49.246;9.106;2022-11-20T08:40:31;6.70;99.90
19586;DHT22;9939;49.246;9.106;2022-11-20T08:42:58;6.60;99.90
19586;DHT22;9939;49.246;9.106;2022-11-20T08:45:25;6.60;99.90
19586;DHT22;9939;49.246;9.106;2022-11-20T08:47:59;6.80;99.90
19586;DHT22;9939;49.246;9.106;2022-11-20T08:50:26;6.80;99.90
19586;DHT22;9939;49.246;9.106;2022-11-20T08:52:53;7.00;99.90
19586;DHT22;9939;49.246;9.106;2022-11-20T08:55:20;6.90;99.90
19586;DHT22;9939;49.246;9.106;2022-11-20T08:57:47;6.90;99.90
19586;DHT22;9939;49.246;9.106;2022-11-20T09:00:16;6.90;99.90
19586;DHT22;9939;49.246;9.106;2022-11-20T09:02:43;7.00;99.90
19586;DHT22;9939;49.246;9.106;2022-11-20T09:05:10;7.00;99.90
19586;DHT22;9939;49.246;9.106;2022-11-20T09:07:37;7.00;99.90
19586;DHT22;9939;49.246;9.106;2022-11-20T09:10:04;7.10;99.90
19586;DHT22;9939;49.246;9.106;2022-11-20T09:12:51;7.10;99.90
19586;DHT22;9939;49.246;9.106;2022-11-20T09:15:18;7.10;99.90
19586;DHT22;9939;49.246;9.106;2022-11-20T09:17:52;7.10;99.90
19586;DHT22;9939;49.246;9.106;2022-11-20T09:20:19;7.10;99.90
19586;DHT22;9939;49.246;9.106;2022-11-20T09:22:46;7.10;99.90
19586;DHT22;9939;49.246;9.106;2022-11-20T09:25:13;7.10;99.90
19586;DHT22;9939;49.246;9.106;2022-11-20T09:27:40;7.10;99.90
19586;DHT22;9939;49.246;9.106;2022-11-20T09:30:10;7.10;99.90
19586;DHT22;9939;49.246;9.106;2022-11-20T09:32:40;7.00;99.90
19586;DHT22;9939;49.246;9.106;2022-11-20T09:35:07;7.10;99.90
19586;DHT22;9939;49.246;9.106;2022-11-20T09:37:34;7.10;99.90
19586;DHT22;9939;49.246;9.106;2022-11-20T09:40:01;7.10;99.90
19586;DHT22;9939;49.246;9.106;2022-11-20T09:45:24;7.20;99.90
19586;DHT22;9939;49.246;9.106;2022-11-20T09:48:09;7.20;99.90
19586;DHT22;9939;49.246;9.106;2022-11-20T09:53:10;7.30;99.90
19586;DHT22;9939;49.246;9.106;2022-11-20T09:55:37;7.40;99.90
19586;DHT22;9939;49.246;9.106;2022-11-20T09:58:05;7.40;99.90
19586;DHT22;9939;49.246;9.106;2022-11-20T10:00:32;7.40;99.90
19586;DHT22;9939;49.246;9.106;2022-11-20T10:03:01;7.60;99.90
19586;DHT22;9939;49.246;9.106;2022-11-20T10:05:35;7.50;99.90
19586;DHT22;9939;49.246;9.106;2022-11-20T10:10:33;7.60;99.90
19586;DHT22;9939;49.246;9.106;2022-11-20T10:16:01;7.80;99.90
19586;DHT22;9939;49.246;9.106;2022-11-20T10:31:35;8.00;99.90
19586;DHT22;9939;49.246;9.106;2022-11-20T10:34:06;7.90;99.90
19586;DHT22;9939;49.246;9.106;2022-11-20T10:36:40;7.80;99.90
19586;DHT22;9939;49.246;9.106;2022-11-20T10:39:16;7.80;99.90
19586;DHT22;9939;49.246;9.106;2022-11-20T10:41:46;7.70;99.90
19586;DHT22;9939;49.246;9.106;2022-11-20T10:44:21;7.80;99.90
19586;DHT22;9939;49.246;9.106;2022-11-20T10:47:17;7.70;99.90
19586;DHT22;9939;49.246;9.106;2022-11-20T10:49:45;7.70;99.90
19586;DHT22;9939;49.246;9.106;2022-11-20T10:54:47;7.80;99.90
19586;DHT22;9939;49.246;9.106;2022-11-20T10:59:55;7.70;99.90
19586;DHT22;9939;49.246;9.106;2022-11-20T11:02:35;7.70;99.90
19586;DHT22;9939;49.246;9.106;2022-11-20T11:05:40;7.80;99.90
19586;DHT22;9939;49.246;9.106;2022-11-20T11:07:59;7.80;99.90
19586;DHT22;9939;49.246;9.106;2022-11-20T11:13:22;8.00;99.90
19586;DHT22;9939;49.246;9.106;2022-11-20T11:15:50;7.90;99.90
19586;DHT22;9939;49.246;9.106;2022-11-20T11:18:24;8.00;99.90
19586;DHT22;9939;49.246;9.106;2022-11-20T11:20:52;8.00;99.90
19586;DHT22;9939;49.246;9.106;2022-11-20T11:26:19;7.60;99.90
19586;DHT22;9939;49.246;9.106;2022-11-20T11:31:42;7.50;99.90
19586;DHT22;9939;49.246;9.106;2022-11-20T11:34:16;7.50;99.90
19586;DHT22;9939;49.246;9.106;2022-11-20T11:36:55;7.50;99.90
19586;DHT22;9939;49.246;9.106;2022-11-20T11:39:23;7.60;99.90
19586;DHT22;9939;49.246;9.106;2022-11-20T11:41:51;8.20;99.90
19586;DHT22;9939;49.246;9.106;2022-11-20T11:44:19;8.80;99.90
19586;DHT22;9939;49.246;9.106;2022-11-20T11:47:08;9.90;99.90
19586;DHT22;9939;49.246;9.106;2022-11-20T11:49:36;11.30;99.90
19586;DHT22;9939;49.246;9.106;2022-11-20T11:52:17;12.40;99.90
19586;DHT22;9939;49.246;9.106;2022-11-20T11:54:58;12.80;99.90
19586;DHT22;9939;49.246;9.106;2022-11-20T12:00:13;11.90;99.90
19586;DHT22;9939;49.246;9.106;2022-11-20T12:15:57;12.50;99.90
19586;DHT22;9939;49.246;9.106;2022-11-20T12:18:24;11.20;99.90
19586;DHT22;9939;49.246;9.106;2022-11-20T12:20:58;10.60;99.90
19586;DHT22;9939;49.246;9.106;2022-11-20T12:26:03;10.30;99.90
19586;DHT22;9939;49.246;9.106;2022-11-20T12:44:41;10.40;99.90
19586;DHT22;9939;49.246;9.106;2022-11-20T12:53:04;9.70;99.90
19586;DHT22;9939;49.246;9.106;2022-11-20T13:00:56;11.30;99.90
19586;DHT22;9939;49.246;9.106;2022-11-20T13:06:05;10.30;99.90
19586;DHT22;9939;49.246;9.106;2022-11-20T13:08:38;9.70;99.90
19586;DHT22;9939;49.246;9.106;2022-11-20T13:16:10;8.90;99.90
19586;DHT22;9939;49.246;9.106;2022-11-20T13:18:40;9.00;99.90
19586;DHT22;9939;49.246;9.106;2022-11-20T13:21:16;9.10;99.90
19586;DHT22;9939;49.246;9.106;2022-11-20T13:23:43;9.60;99.90
19586;DHT22;9939;49.246;9.106;2022-11-20T13:26:18;10.10;99.90
19586;DHT22;9939;49.246;9.106;2022-11-20T13:28:46;10.50;99.90
19586;DHT22;9939;49.246;9.106;2022-11-20T13:31:30;10.70;99.90
19586;DHT22;9939;49.246;9.106;2022-11-20T13:33:58;10.60;99.90
19586;DHT22;9939;49.246;9.106;2022-11-20T13:36:27;10.60;99.90
19586;DHT22;9939;49.246;9.106;2022-11-20T13:38:54;10.20;99.90
19586;DHT22;9939;49.246;9.106;2022-11-20T13:41:35;10.30;99.90
19586;DHT22;9939;49.246;9.106;2022-11-20T13:44:13;10.30;99.90
19586;DHT22;9939;49.246;9.106;2022-11-20T13:46:44;10.20;99.90
19586;DHT22;9939;49.246;9.106;2022-11-20T13:57:37;9.80;99.90
19586;DHT22;9939;49.246;9.106;2022-11-20T14:00:11;9.60;99.90
19586;DHT22;9939;49.246;9.106;2022-11-20T14:02:40;9.60;99.90
19586;DHT22;9939;49.246;9.106;2022-11-20T14:05:13;9.50;99.90
19586;DHT22;9939;49.246;9.106;2022-11-20T14:07:44;9.50;99.90
19586;DHT22;9939;49.246;9.106;2022-11-20T14:10:22;9.40;99.90
19586;DHT22;9939;49.246;9.106;2022-11-20T14:12:57;9.30;99.90
19586;DHT22;9939;49.246;9.106;2022-11-20T14:15:25;9.10;99.90
19586;DHT22;9939;49.246;9.106;2022-11-20T14:17:52;9.00;99.90
19586;DHT22;9939;49.246;9.106;2022-11-20T14:20:19;9.00;99.90
19586;DHT22;9939;49.246;9.106;2022-11-20T14:22:50;9.10;99.90
19586;DHT22;9939;49.246;9.106;2022-11-20T14:27:45;9.40;99.90
19586;DHT22;9939;49.246;9.106;2022-11-20T14:30:15;9.50;99.90
19586;DHT22;9939;49.246;9.106;2022-11-20T14:32:43;9.50;99.90
19586;DHT22;9939;49.246;9.106;2022-11-20T14:35:14;9.50;99.90
19586;DHT22;9939;49.246;9.106;2022-11-20T14:37:45;9.60;99.90
19586;DHT22;9939;49.246;9.106;2022-11-20T14:40:23;9.50;99.90
19586;DHT22;9939;49.246;9.106;2022-11-20T14:42:50;9.30;99.90
19586;DHT22;9939;49.246;9.106;2022-11-20T14:45:17;9.20;99.90
19586;DHT22;9939;49.246;9.106;2022-11-20T14:47:45;9.10;99.90
19586;DHT22;9939;49.246;9.106;2022-11-20T14:50:14;9.00;99.90
19586;DHT22;9939;49.246;9.106;2022-11-20T14:53:21;8.90;99.90
19586;DHT22;9939;49.246;9.106;2022-11-20T14:55:37;8.80;99.90
19586;DHT22;9939;49.246;9.106;2022-11-20T14:58:27;8.70;99.90
19586;DHT22;9939;49.246;9.106;2022-11-20T15:00:53;8.60;99.90
19586;DHT22;9939;49.246;9.106;2022-11-20T15:03:20;8.50;99.90
19586;DHT22;9939;49.246;9.106;2022-11-20T15:05:48;8.40;99.90
19586;DHT22;9939;49.246;9.106;2022-11-20T15:08:15;8.40;99.90
19586;DHT22;9939;49.246;9.106;2022-11-20T15:10:49;8.30;99.90
19586;DHT22;9939;49.246;9.106;2022-11-20T15:13:26;8.10;99.90
19586;DHT22;9939;49.246;9.106;2022-11-20T15:15:57;8.00;99.90
19586;DHT22;9939;49.246;9.106;2022-11-20T15:18:37;8.00;99.90
19586;DHT22;9939;49.246;9.106;2022-11-20T15:21:09;7.90;99.90
19586;DHT22;9939;49.246;9.106;2022-11-20T15:23:36;7.80;99.90
19586;DHT22;9939;49.246;9.106;2022-11-20T15:26:04;7.60;99.90
19586;DHT22;9939;49.246;9.106;2022-11-20T15:28:42;7.60;99.90
19586;DHT22;9939;49.246;9.106;2022-11-20T15:31:12;7.60;99.90
19586;DHT22;9939;49.246;9.106;2022-11-20T15:33:39;7.60;99.90
19586;DHT22;9939;49.246;9.106;2022-11-20T15:36:07;7.50;99.90
19586;DHT22;9939;49.246;9.106;2022-11-20T15:38:34;7.50;99.90
19586;DHT22;9939;49.246;9.106;2022-11-20T15:41:01;7.40;99.90
19586;DHT22;9939;49.246;9.106;2022-11-20T15:43:28;7.30;99.90
19586;DHT22;9939;49.246;9.106;2022-11-20T15:45:56;7.40;99.90
19586;DHT22;9939;49.246;9.106;2022-11-20T15:48:35;7.30;99.90
19586;DHT22;9939;49.246;9.106;2022-11-20T15:53:39;7.30;99.90
19586;DHT22;9939;49.246;9.106;2022-11-20T15:56:11;7.20;99.90
19586;DHT22;9939;49.246;9.106;2022-11-20T15:58:38;7.20;99.90
19586;DHT22;9939;49.246;9.106;2022-11-20T16:01:09;7.20;99.90
19586;DHT22;9939;49.246;9.106;2022-11-20T16:03:37;7.10;99.90
19586;DHT22;9939;49.246;9.106;2022-11-20T16:06:04;7.10;99.90
19586;DHT22;9939;49.246;9.106;2022-11-20T16:08:31;7.10;99.90
19586;DHT22;9939;49.246;9.106;2022-11-20T16:10:58;7.10;99.90
19586;DHT22;9939;49.246;9.106;2022-11-20T16:13:25;7.10;99.90
19586;DHT22;9939;49.246;9.106;2022-11-20T16:16:29;7.10;99.90
19586;DHT22;9939;49.246;9.106;2022-11-20T16:18:57;7.10;99.90
19586;DHT22;9939;49.246;9.106;2022-11-20T16:21:24;7.10;99.90
19586;DHT22;9939;49.246;9.106;2022-11-20T16:24:02;7.00;99.90
19586;DHT22;9939;49.246;9.106;2022-11-20T16:26:30;6.90;99.90
19586;DHT22;9939;49.246;9.106;2022-11-20T16:29:01;7.00;99.90
19586;DHT22;9939;49.246;9.106;2022-11-20T16:31:29;7.00;99.90
19586;DHT22;9939;49.246;9.106;2022-11-20T16:33:57;7.00;99.90
19586;DHT22;9939;49.246;9.106;2022-11-20T16:36:25;6.90;99.90
19586;DHT22;9939;49.246;9.106;2022-11-20T16:38:56;6.90;99.90
19586;DHT22;9939;49.246;9.106;2022-11-20T16:41:23;7.00;99.90
19586;DHT22;9939;49.246;9.106;2022-11-20T16:43:56;6.90;99.90
19586;DHT22;9939;49.246;9.106;2022-11-20T16:46:24;6.90;99.90
19586;DHT22;9939;49.246;9.106;2022-11-20T16:48:52;6.80;99.90
19586;DHT22;9939;49.246;9.106;2022-11-20T16:51:19;6.70;99.90
19586;DHT22;9939;49.246;9.106;2022-11-20T16:53:46;6.70;99.90
19586;DHT22;9939;49.246;9.106;2022-11-20T16:56:14;6.70;99.90
19586;DHT22;9939;49.246;9.106;2022-11-20T16:58:43;6.60;99.90
19586;DHT22;9939;49.246;9.106;2022-11-20T17:01:11;6.70;99.90
19586;DHT22;9939;49.246;9.106;2022-11-20T17:03:38;6.60;99.90
19586;DHT22;9939;49.246;9.106;2022-11-20T17:06:10;6.70;99.90
19586;DHT22;9939;49.246;9.106;2022-11-20T17:08:37;6.80;99.90
19586;DHT22;9939;49.246;9.106;2022-11-20T17:11:05;6.70;99.90
19586;DHT22;9939;49.246;9.106;2022-11-20T17:13:32;6.60;99.90
19586;DHT22;9939;49.246;9.106;2022-11-20T17:16:06;6.60;99.90
19586;DHT22;9939;49.246;9.106;2022-11-20T17:18:33;6.50;99.90
19586;DHT22;9939;49.246;9.106;2022-11-20T17:21:00;6.50;99.90
19586;DHT22;9939;49.246;9.106;2022-11-20T17:23:31;6.50;99.90
19586;DHT22;9939;49.246;9.106;2022-11-20T17:28:29;6.40;99.90
19586;DHT22;9939;49.246;9.106;2022-11-20T17:30:58;6.50;99.90
19586;DHT22;9939;49.246;9.106;2022-11-20T17:33:25;6.60;99.90
19586;DHT22;9939;49.246;9.106;2022-11-20T17:35:52;6.70;99.90
19586;DHT22;9939;49.246;9.106;2022-11-20T17:38:19;6.70;99.90
19586;DHT22;9939;49.246;9.106;2022-11-20T17:40:46;6.70;99.90
19586;DHT22;9939;49.246;9.106;2022-11-20T17:43:13;6.60;99.90
19586;DHT22;9939;49.246;9.106;2022-11-20T17:45:39;6.60;99.90
19586;DHT22;9939;49.246;9.106;2022-11-20T17:48:06;6.70;99.90
19586;DHT22;9939;49.246;9.106;2022-11-20T17:50:33;6.70;99.90
19586;DHT22;9939;49.246;9.106;2022-11-20T17:53:00;6.60;99.90
19586;DHT22;9939;49.246;9.106;2022-11-20T17:55:27;6.60;99.90
19586;DHT22;9939;49.246;9.106;2022-11-20T17:58:21;6.50;99.90
19586;DHT22;9939;49.246;9.106;2022-11-20T18:00:48;6.40;99.90
19586;DHT22;9939;49.246;9.106;2022-11-20T18:03:15;6.30;99.90
19586;DHT22;9939;49.246;9.106;2022-11-20T18:05:42;6.30;99.90
19586;DHT22;9939;49.246;9.106;2022-11-20T18:08:09;6.40;99.90
19586;DHT22;9939;49.246;9.106;2022-11-20T18:10:35;6.40;99.90